This is the latest recevied weather packets stored in our database for station/object Riedlingn. If no packets are shown the sender has not sent any weather packets the latest 10 day(s).
| Time | Temp. | Humidity | Pressure | Rain* | Wind** | Luminosity | Snow |
|---|---|---|---|---|---|---|---|
| 1777660330 | 18.33° C | 36% | 1028.9 hPa | 0 mm | - | - | - |
| 1777658531 | 19.44° C | 34% | 1028.6 hPa | 0 mm | - | - | - |
| 1777656731 | 20.56° C | 32% | 1028.4 hPa | 0 mm | - | - | - |
| 1777654930 | 21.11° C | 29% | 1028.6 hPa | 0 mm | - | - | - |
| 1777653130 | 21.67° C | 29% | 1028.8 hPa | 0 mm | - | - | - |
| 1777651330 | 21.67° C | 28% | 1028.9 hPa | 0 mm | - | - | - |
| 1777649530 | 21.67° C | 27% | 1029.1 hPa | 0 mm | - | - | - |
| 1777647730 | 21.67° C | 27% | 1029.4 hPa | 0 mm | - | - | - |
| 1777645930 | 21.67° C | 27% | 1029.7 hPa | 0 mm | - | - | - |
| 1777644130 | 21.11° C | 28% | 1029.9 hPa | 0 mm | - | - | - |
| 1777642330 | 20.56° C | 27% | 1030.3 hPa | 0 mm | - | - | - |
| 1777640531 | 20° C | 28% | 1030.7 hPa | 0 mm | - | - | - |
| 1777638736 | 19.44° C | 28% | 1031 hPa | 0 mm | - | - | - |
| 1777636931 | 18.89° C | 31% | 1031.2 hPa | 0 mm | - | - | - |
| 1777635130 | 18.33° C | 30% | 1031.5 hPa | 0 mm | - | - | - |
| 1777633331 | 17.22° C | 32% | 1031.8 hPa | 0 mm | - | - | - |
| 1777631531 | 16.67° C | 31% | 1032.2 hPa | 0 mm | - | - | - |
| 1777629731 | 15° C | 36% | 1032.4 hPa | 0 mm | - | - | - |
| 1777627930 | 14.44° C | 39% | 1032.4 hPa | 0 mm | - | - | - |
| 1777626132 | 12.78° C | 42% | 1032.5 hPa | 0 mm | - | - | - |
| 1777624331 | 11.67° C | 43% | 1032.5 hPa | 0 mm | - | - | - |
| 1777622532 | 10° C | 45% | 1032.3 hPa | 0 mm | - | - | - |
| 1777620733 | 9.44° C | 45% | 1032.5 hPa | 0 mm | - | - | - |
| 1777618930 | 8.89° C | 46% | 1032.5 hPa | 0 mm | - | - | - |
| 1777617131 | 7.78° C | 48% | 1032.3 hPa | 0 mm | - | - | - |
* Rain since midnight (hover to see other rain measurements)
** Current wind speed in m/s (hover to see current wind gust speed)